createdAt,value
2018-09-08T00:00:16.618Z,72.41
2018-09-08T00:01:16.652Z,72.50
2018-09-08T00:02:16.771Z,73.18
2018-09-08T00:03:16.707Z,72.69
2018-09-08T00:04:16.726Z,71.45
2018-09-08T00:05:16.755Z,70.93
2018-09-08T00:06:16.792Z,71.12
2018-09-08T00:07:16.826Z,71.22
2018-09-08T00:08:16.840Z,71.41
2018-09-08T00:09:16.859Z,69.43
2018-09-08T00:10:16.898Z,70.10
2018-09-08T00:11:16.921Z,69.49
2018-09-08T00:12:16.941Z,69.87
2018-09-08T00:13:16.979Z,69.68
2018-09-08T00:14:16.999Z,70.26
2018-09-08T00:15:17.034Z,70.17
2018-09-08T00:16:17.054Z,69.49
2018-09-08T00:17:17.085Z,68.28
2018-09-08T00:18:17.114Z,70.10
2018-09-08T00:19:17.134Z,69.53
2018-09-08T00:20:17.176Z,68.95
2018-09-08T00:21:17.189Z,68.53
2018-09-08T00:22:17.223Z,70.17
2018-09-08T00:23:17.254Z,69.49
2018-09-08T00:24:17.281Z,69.68
2018-09-08T00:25:17.303Z,68.44
2018-09-08T00:26:17.330Z,68.34
2018-09-08T00:27:17.357Z,67.67
2018-09-08T00:28:17.384Z,69.59
2018-09-08T00:29:17.414Z,68.53
2018-09-08T00:30:17.446Z,68.34
2018-09-08T00:31:17.464Z,66.80
2018-09-08T00:32:17.515Z,68.24
2018-09-08T00:33:17.525Z,68.24
2018-09-08T00:34:17.554Z,68.05
2018-09-08T00:35:17.639Z,68.44
2018-09-08T00:36:17.607Z,69.49
2018-09-08T00:37:17.640Z,68.82
2018-09-08T00:38:17.720Z,69.11
2018-09-08T00:39:17.683Z,65.65
2018-09-08T00:40:17.713Z,67.38
2018-09-08T00:41:17.739Z,68.63
2018-09-08T00:42:17.773Z,68.73
2018-09-08T00:43:17.793Z,67.29
2018-09-08T00:44:17.818Z,68.15
2018-09-08T00:45:17.849Z,68.73
2018-09-08T00:46:17.893Z,68.44
2018-09-08T00:47:17.901Z,67.67
2018-09-08T00:48:17.930Z,67.96
2018-09-08T00:49:17.978Z,68.63
2018-09-08T00:50:17.985Z,67.67
2018-09-08T00:51:18.020Z,68.24
2018-09-08T00:52:18.044Z,68.91
2018-09-08T00:53:18.064Z,69.20
2018-09-08T00:54:18.100Z,68.91
2018-09-08T00:55:18.698Z,68.63
2018-09-08T00:56:18.150Z,69.59
2018-09-08T00:57:18.527Z,69.49
2018-09-08T00:58:18.202Z,69.17
2018-09-08T00:59:18.559Z,69.26
2018-09-08T01:00:18.488Z,68.82
2018-09-08T01:01:18.606Z,69.30
2018-09-08T01:03:18.547Z,69.36
2018-09-08T01:04:18.590Z,69.93
2018-09-08T01:05:18.529Z,69.46
2018-09-08T01:06:18.555Z,68.98
2018-09-08T01:07:18.685Z,69.17
2018-09-08T01:08:18.630Z,69.36
2018-09-08T01:09:18.647Z,70.42
2018-09-08T01:10:18.640Z,69.84
2018-09-08T01:11:18.645Z,69.26
2018-09-08T01:12:18.713Z,69.74
2018-09-08T01:13:18.747Z,70.32
2018-09-08T01:14:18.728Z,68.82
2018-09-08T01:15:18.673Z,69.93
2018-09-08T01:16:18.775Z,69.46
2018-09-08T01:17:18.803Z,69.65
2018-09-08T01:18:18.748Z,70.03
2018-09-08T01:19:18.774Z,70.03
2018-09-08T01:20:18.798Z,70.03
2018-09-08T01:21:18.831Z,70.32
2018-09-08T01:22:18.858Z,70.80
2018-09-08T01:23:18.891Z,70.32
2018-09-08T01:24:18.910Z,69.93
2018-09-08T01:25:18.946Z,70.03
2018-09-08T01:26:18.980Z,70.42
2018-09-08T01:27:19.025Z,70.51
2018-09-08T01:28:19.025Z,70.32
2018-09-08T01:29:19.109Z,70.32
2018-09-08T01:30:19.073Z,70.51
2018-09-08T01:31:19.102Z,70.51
2018-09-08T01:32:19.140Z,70.61
2018-09-08T01:33:19.161Z,70.51
2018-09-08T01:34:19.202Z,68.79
2018-09-08T01:35:19.210Z,68.88
2018-09-08T01:36:19.242Z,70.42
2018-09-08T01:37:19.287Z,70.32
2018-09-08T01:38:19.295Z,70.90
2018-09-08T01:39:19.323Z,70.80
2018-09-08T01:40:19.355Z,71.19
2018-09-08T01:41:19.376Z,71.37
2018-09-08T01:42:19.406Z,70.90
2018-09-08T01:43:19.432Z,71.28
2018-09-08T01:44:19.457Z,71.57
2018-09-08T01:45:19.484Z,71.57
2018-09-08T01:46:19.519Z,71.09
2018-09-08T01:47:19.544Z,72.43
2018-09-08T01:48:19.597Z,72.91
2018-09-08T01:49:19.590Z,72.53
2018-09-08T01:50:19.625Z,72.59
2018-09-08T01:51:19.646Z,72.88
2018-09-08T01:52:19.672Z,73.00
2018-09-08T01:53:19.698Z,72.43
2018-09-08T01:54:19.727Z,72.91
2018-09-08T01:55:19.756Z,72.63
2018-09-08T01:56:19.784Z,72.63
2018-09-08T01:57:19.809Z,73.07
2018-09-08T01:58:19.832Z,73.83
2018-09-08T01:59:19.944Z,73.35
2018-09-08T02:00:19.894Z,73.55
2018-09-08T02:01:19.924Z,72.97
2018-09-08T02:02:19.945Z,73.16
2018-09-08T02:03:19.974Z,73.07
2018-09-08T02:04:20.007Z,73.10
2018-09-08T02:05:20.034Z,72.97
2018-09-08T02:06:20.050Z,72.78
2018-09-08T02:07:20.079Z,73.07
2018-09-08T02:08:20.108Z,73.16
2018-09-08T02:09:20.136Z,72.97
2018-09-08T02:10:20.206Z,72.97
2018-09-08T02:11:20.189Z,72.88
2018-09-08T02:12:20.216Z,72.97
2018-09-08T02:13:20.245Z,72.88
2018-09-08T02:14:20.275Z,73.49
2018-09-08T02:15:20.296Z,73.97
2018-09-08T02:16:20.330Z,73.00
2018-09-08T02:17:20.358Z,73.00
2018-09-08T02:18:20.379Z,72.81
2018-09-08T02:19:20.406Z,72.43
2018-09-08T02:20:20.428Z,72.91
2018-09-08T02:21:20.459Z,72.33
2018-09-08T02:22:20.571Z,72.43
2018-09-08T02:23:20.519Z,72.43
2018-09-08T02:24:20.546Z,72.24
2018-09-08T02:25:20.572Z,73.10
2018-09-08T02:26:20.597Z,72.81
2018-09-08T02:27:20.630Z,73.10
2018-09-08T02:28:20.649Z,73.00
2018-09-08T02:29:20.687Z,73.30
2018-09-08T02:30:20.717Z,73.00
2018-09-08T02:31:20.732Z,73.00
2018-09-08T02:32:20.759Z,73.10
2018-09-08T02:33:20.796Z,73.10
2018-09-08T02:34:20.813Z,72.63
2018-09-08T02:35:20.838Z,72.72
2018-09-08T02:36:21.221Z,73.45
2018-09-08T02:37:20.902Z,73.39
2018-09-08T02:38:20.920Z,74.02
2018-09-08T02:39:20.944Z,73.93
2018-09-08T02:40:20.980Z,73.93
2018-09-08T02:41:21.008Z,73.65
2018-09-08T02:42:21.041Z,74.60
2018-09-08T02:43:21.057Z,74.31
2018-09-08T02:44:21.081Z,73.74
2018-09-08T02:45:21.107Z,73.16
2018-09-08T02:46:21.147Z,73.35
2018-09-08T02:47:21.170Z,73.16
2018-09-08T02:48:21.191Z,71.28
2018-09-08T02:49:21.216Z,69.17
2018-09-08T02:50:21.253Z,69.07
2018-09-08T02:51:21.269Z,68.50
2018-09-08T02:52:21.376Z,68.34
2018-09-08T02:53:21.332Z,68.15
2018-09-08T02:54:21.355Z,68.34
2018-09-08T02:55:21.383Z,67.76
2018-09-08T02:56:21.419Z,68.24
2018-09-08T02:57:21.453Z,68.53
2018-09-08T02:58:21.462Z,68.53
2018-09-08T02:59:21.486Z,68.34
2018-09-08T03:00:21.523Z,68.53
2018-09-08T03:01:21.542Z,68.44
2018-09-08T03:02:21.576Z,68.53
2018-09-08T03:03:21.606Z,68.82
2018-09-08T03:04:21.633Z,68.63
2018-09-08T03:05:21.648Z,68.82
2018-09-08T03:06:21.687Z,70.51
2018-09-08T03:07:21.704Z,71.31
2018-09-08T03:08:21.742Z,70.99
2018-09-08T03:09:21.761Z,70.80
2018-09-08T03:10:21.787Z,70.07
2018-09-08T03:11:21.810Z,70.13
2018-09-08T03:12:21.947Z,69.26
2018-09-08T03:13:21.864Z,69.59
2018-09-08T03:14:21.899Z,70.23
2018-09-08T03:15:21.922Z,70.42
2018-09-08T03:16:21.947Z,70.03
2018-09-08T03:17:21.980Z,69.46
2018-09-08T03:18:22.005Z,69.07
2018-09-08T03:19:22.033Z,68.88
2018-09-08T03:20:22.059Z,70.32
2018-09-08T03:21:22.081Z,71.19
2018-09-08T03:22:22.107Z,70.99
2018-09-08T03:23:22.237Z,70.42
2018-09-08T03:24:22.163Z,70.42
2018-09-08T03:25:22.195Z,70.32
2018-09-08T03:26:22.219Z,69.56
2018-09-08T03:27:22.243Z,69.36
2018-09-08T03:28:22.270Z,69.07
2018-09-08T03:29:22.299Z,69.26
2018-09-08T03:30:22.324Z,70.23
2018-09-08T03:31:22.358Z,70.51
2018-09-08T03:32:22.378Z,70.76
2018-09-08T03:33:22.403Z,71.92
2018-09-08T03:34:22.435Z,71.53
2018-09-08T03:35:22.464Z,71.72
2018-09-08T03:36:22.483Z,71.53
2018-09-08T03:37:22.509Z,72.39
2018-09-08T03:38:22.542Z,72.49
2018-09-08T03:39:22.572Z,72.68
2018-09-08T03:40:22.592Z,72.45
2018-09-08T03:41:22.618Z,72.78
2018-09-08T03:42:22.647Z,72.59
2018-09-08T03:43:22.681Z,73.41
2018-09-08T03:44:22.701Z,72.74
2018-09-08T03:45:22.744Z,72.94
2018-09-08T03:46:22.762Z,73.61
2018-09-08T03:47:22.783Z,73.51
2018-09-08T03:48:22.811Z,73.70
2018-09-08T03:49:22.833Z,74.27
2018-09-08T03:50:22.860Z,74.18
2018-09-08T03:51:22.887Z,74.24
2018-09-08T03:52:22.926Z,73.99
2018-09-08T03:53:22.952Z,74.33
2018-09-08T03:54:22.966Z,74.15
2018-09-08T03:55:22.996Z,74.24
2018-09-08T03:56:23.029Z,74.52
2018-09-08T03:57:23.057Z,74.91
2018-09-08T03:58:23.073Z,74.52
2018-09-08T03:59:23.154Z,74.52
2018-09-08T04:00:23.137Z,75.48
2018-09-08T04:01:23.157Z,75.48
2018-09-08T04:02:23.190Z,74.82
2018-09-08T04:03:23.208Z,75.10
2018-09-08T04:04:23.242Z,75.39
2018-09-08T04:05:23.291Z,75.20
2018-09-08T04:06:23.286Z,75.39
2018-09-08T04:07:23.323Z,75.10
2018-09-08T04:08:23.348Z,75.23
2018-09-08T04:09:23.378Z,74.82
2018-09-08T04:10:23.395Z,74.66
2018-09-08T04:11:23.492Z,73.32
2018-09-08T04:12:23.449Z,74.18
2018-09-08T04:13:23.478Z,73.61
2018-09-08T04:14:23.510Z,74.27
2018-09-08T04:15:23.532Z,74.18
2018-09-08T04:16:23.560Z,75.04
2018-09-08T04:17:23.590Z,73.22
2018-09-08T04:18:23.616Z,72.78
2018-09-08T04:19:23.641Z,72.59
2018-09-08T04:20:23.664Z,72.68
2018-09-08T04:21:23.693Z,72.30
2018-09-08T04:22:23.721Z,72.30
2018-09-08T04:23:23.756Z,72.59
2018-09-08T04:24:23.805Z,72.59
2018-09-08T04:25:23.800Z,73.16
2018-09-08T04:26:23.828Z,73.26
2018-09-08T04:27:23.939Z,73.74
2018-09-08T04:28:23.880Z,73.35
2018-09-08T04:29:23.930Z,72.88
2018-09-08T04:30:23.941Z,73.07
2018-09-08T04:31:23.960Z,73.07
2018-09-08T04:32:23.994Z,73.74
2018-09-08T04:33:24.016Z,73.45
2018-09-08T04:34:24.042Z,73.55
2018-09-08T04:35:24.068Z,73.83
2018-09-08T04:36:24.096Z,73.55
2018-09-08T04:37:24.118Z,72.78
2018-09-08T04:38:24.240Z,73.26
2018-09-08T04:39:24.180Z,72.88
2018-09-08T04:40:24.199Z,73.07
2018-09-08T04:41:24.232Z,72.88
2018-09-08T04:42:24.271Z,73.83
2018-09-08T04:43:24.281Z,73.55
2018-09-08T04:44:24.310Z,73.55
2018-09-08T04:45:24.335Z,74.31
2018-09-08T04:46:24.363Z,73.45
2018-09-08T04:47:24.421Z,73.74
2018-09-08T04:48:24.415Z,73.90
2018-09-08T04:49:24.438Z,74.08
2018-09-08T04:50:24.461Z,73.90
2018-09-08T04:51:24.503Z,74.27
2018-09-08T04:52:24.519Z,74.37
2018-09-08T04:53:24.548Z,74.08
2018-09-08T04:54:24.583Z,74.08
2018-09-08T04:55:24.605Z,73.99
2018-09-08T04:56:24.622Z,73.80
2018-09-08T04:57:24.653Z,73.80
2018-09-08T04:58:24.694Z,73.13
2018-09-08T04:59:24.740Z,74.47
2018-09-08T05:00:24.739Z,73.99
2018-09-08T05:01:24.760Z,74.18
2018-09-08T05:02:24.822Z,73.51
2018-09-08T05:03:24.818Z,73.99
2018-09-08T05:04:24.837Z,73.61
2018-09-08T05:05:24.872Z,73.41
2018-09-08T05:06:24.892Z,73.70
2018-09-08T05:07:24.927Z,73.90
2018-09-08T05:08:24.951Z,73.22
2018-09-08T05:09:24.973Z,73.90
2018-09-08T05:10:24.997Z,73.99
2018-09-08T05:11:25.026Z,74.47
2018-09-08T05:12:25.059Z,74.18
2018-09-08T05:13:25.079Z,74.18
2018-09-08T05:14:25.099Z,74.22
2018-09-08T05:15:25.129Z,73.83
2018-09-08T05:16:25.164Z,73.93
2018-09-08T05:17:25.181Z,73.55
2018-09-08T05:18:25.206Z,73.45
2018-09-08T05:19:25.234Z,73.83
2018-09-08T05:20:25.268Z,73.65
2018-09-08T05:21:25.292Z,73.90
2018-09-08T05:22:25.314Z,73.35
2018-09-08T05:23:25.354Z,73.35
2018-09-08T05:24:25.376Z,73.07
2018-09-08T05:25:25.391Z,73.65
2018-09-08T05:26:25.417Z,74.12
2018-09-08T05:27:25.444Z,74.08
2018-09-08T05:28:25.529Z,74.18
2018-09-08T05:29:25.525Z,74.37
2018-09-08T05:30:25.519Z,74.08
2018-09-08T05:31:25.642Z,74.57
2018-09-08T05:32:25.582Z,74.12
2018-09-08T05:33:25.605Z,73.83
2018-09-08T05:34:25.629Z,73.93
2018-09-08T05:35:25.658Z,73.35
2018-09-08T05:36:25.682Z,74.51
2018-09-08T05:37:25.766Z,73.35
2018-09-08T05:38:25.745Z,73.74
2018-09-08T05:39:25.777Z,73.74
2018-09-08T05:40:26.273Z,74.12
2018-09-08T05:41:25.826Z,73.55
2018-09-08T05:42:25.850Z,73.93
2018-09-08T05:43:25.887Z,74.31
2018-09-08T05:44:25.903Z,74.18
2018-09-08T05:45:25.922Z,74.27
2018-09-08T05:46:25.947Z,75.08
2018-09-08T05:47:25.977Z,74.41
2018-09-08T05:48:25.996Z,74.27
2018-09-08T05:49:26.051Z,74.47
2018-09-08T05:50:26.054Z,74.57
2018-09-08T05:51:26.078Z,74.57
2018-09-08T05:52:26.105Z,74.66
2018-09-08T05:53:26.203Z,74.37
2018-09-08T05:54:26.163Z,75.14
2018-09-08T05:55:26.184Z,74.76
2018-09-08T05:56:26.220Z,74.79
2018-09-08T05:57:26.237Z,74.22
2018-09-08T05:58:26.324Z,74.22
2018-09-08T05:59:26.288Z,75.27
2018-09-08T06:00:26.314Z,74.12
2018-09-08T06:01:26.344Z,74.18
2018-09-08T06:02:26.404Z,74.95
2018-09-08T06:03:26.394Z,75.23
2018-09-08T06:04:26.540Z,74.37
2018-09-08T06:05:26.446Z,74.76
2018-09-08T06:06:26.477Z,74.27
2018-09-08T06:07:26.505Z,75.23
2018-09-08T06:08:26.537Z,74.95
2018-09-08T06:09:26.555Z,73.99
2018-09-08T06:10:26.581Z,73.70
2018-09-08T06:11:26.607Z,73.45
2018-09-08T06:12:26.642Z,73.07
2018-09-08T06:13:26.669Z,73.16
2018-09-08T06:14:26.693Z,72.39
2018-09-08T06:15:26.723Z,71.53
2018-09-08T06:16:26.744Z,70.76
2018-09-08T06:17:26.825Z,70.86
2018-09-08T06:18:26.792Z,70.96
2018-09-08T06:19:26.818Z,71.05
2018-09-08T06:20:26.846Z,71.15
2018-09-08T06:21:26.896Z,70.86
2018-09-08T06:22:26.911Z,70.48
2018-09-08T06:23:26.925Z,71.63
2018-09-08T06:24:26.963Z,70.86
2018-09-08T06:25:27.034Z,71.63
2018-09-08T06:26:27.015Z,70.76
2018-09-08T06:27:27.052Z,70.09
2018-09-08T06:28:27.128Z,69.13
2018-09-08T06:29:27.088Z,69.13
2018-09-08T06:30:27.107Z,68.27
2018-09-08T06:31:27.137Z,68.46
2018-09-08T06:32:27.172Z,67.89
2018-09-08T06:33:27.265Z,67.69
2018-09-08T06:34:27.213Z,67.60
2018-09-08T06:35:27.313Z,67.60
2018-09-08T06:36:27.289Z,67.60
2018-09-08T06:37:27.299Z,67.60
2018-09-08T06:38:27.321Z,67.79
2018-09-08T06:39:27.359Z,68.37
2018-09-08T06:40:27.474Z,67.41
2018-09-08T06:41:27.442Z,67.69
2018-09-08T06:42:27.445Z,67.60
2018-09-08T06:43:27.470Z,66.55
2018-09-08T06:44:27.485Z,65.49
2018-09-08T06:45:27.508Z,65.78
2018-09-08T06:46:27.557Z,65.68
2018-09-08T06:47:27.572Z,65.91
2018-09-08T06:48:27.589Z,65.72
2018-09-08T06:49:27.624Z,65.14
2018-09-08T06:50:27.635Z,64.95
2018-09-08T06:51:27.676Z,64.37
2018-09-08T06:52:27.694Z,64.66
2018-09-08T06:53:27.719Z,66.19
2018-09-08T06:54:27.747Z,64.18
2018-09-08T06:55:27.778Z,64.95
2018-09-08T06:56:27.796Z,64.66
2018-09-08T06:57:27.861Z,61.69
2018-09-08T06:58:27.850Z,60.72
2018-09-08T06:59:27.913Z,60.72
2018-09-08T07:00:27.909Z,63.42
2018-09-08T07:01:27.934Z,61.49
2018-09-08T07:02:27.987Z,63.79
2018-09-08T07:03:28.047Z,61.69
2018-09-08T07:04:28.013Z,61.02
2018-09-08T07:05:28.040Z,61.69
2018-09-08T07:06:28.174Z,60.82
2018-09-08T07:07:28.100Z,60.53
2018-09-08T07:08:28.125Z,60.82
2018-09-08T07:09:28.139Z,61.59
2018-09-08T07:10:28.170Z,60.53
2018-09-08T07:11:28.195Z,60.82
2018-09-08T07:12:28.238Z,60.92
2018-09-08T07:13:28.248Z,60.92
2018-09-08T07:14:28.274Z,61.98
2018-09-08T07:15:28.300Z,61.49
2018-09-08T07:16:28.329Z,60.72
2018-09-08T07:17:28.355Z,59.96
2018-09-08T07:18:28.382Z,60.72
2018-09-08T07:19:29.312Z,60.53
2018-09-08T07:20:28.441Z,60.63
2018-09-08T07:21:28.476Z,62.45
2018-09-08T07:22:28.504Z,61.02
2018-09-08T07:23:28.519Z,61.78
2018-09-08T07:24:28.537Z,60.82
2018-09-08T07:25:28.571Z,61.78
2018-09-08T07:26:28.592Z,61.02
2018-09-08T07:27:28.621Z,61.14
2018-09-08T07:28:28.650Z,60.35
2018-09-08T07:29:28.683Z,61.11
2018-09-08T07:30:28.753Z,60.92
2018-09-08T07:31:28.760Z,60.72
2018-09-08T07:32:28.755Z,60.85
2018-09-08T07:33:28.783Z,60.28
2018-09-08T07:34:28.812Z,60.47
2018-09-08T07:35:28.835Z,60.57
2018-09-08T07:36:28.867Z,60.75
2018-09-08T07:37:28.930Z,60.18
2018-09-08T07:38:28.908Z,59.51
2018-09-08T07:39:28.956Z,59.61
2018-09-08T07:40:28.964Z,58.74
2018-09-08T07:41:28.992Z,58.17
2018-09-08T07:42:29.046Z,57.50
2018-09-08T07:43:29.053Z,58.74
2018-09-08T07:44:29.073Z,58.94
2018-09-08T07:45:29.122Z,57.59
2018-09-08T07:46:29.130Z,58.67
2018-09-08T07:47:29.174Z,58.67
2018-09-08T07:48:29.178Z,57.52
2018-09-08T07:49:29.213Z,58.29
2018-09-08T07:50:29.232Z,56.95
2018-09-08T07:51:29.258Z,56.37
2018-09-08T07:52:29.286Z,56.27
2018-09-08T07:53:29.446Z,56.27
2018-09-08T07:54:29.337Z,56.95
2018-09-08T07:55:29.376Z,56.56
2018-09-08T07:56:29.395Z,56.37
2018-09-08T07:57:29.418Z,55.51
2018-09-08T07:58:29.480Z,55.12
2018-09-08T07:59:29.500Z,55.41
2018-09-08T08:00:29.500Z,55.41
2018-09-08T08:01:29.572Z,54.55
2018-09-08T08:02:29.577Z,55.44
2018-09-08T08:03:29.620Z,55.91
2018-09-08T08:04:29.607Z,55.53
2018-09-08T08:05:29.629Z,54.67
2018-09-08T08:06:29.720Z,54.96
2018-09-08T08:07:29.699Z,53.42
2018-09-08T08:08:29.739Z,54.09
2018-09-08T08:09:29.775Z,54.19
2018-09-08T08:10:31.681Z,54.09
2018-09-08T08:11:30.522Z,53.80
2018-09-08T08:12:29.834Z,53.80
2018-09-08T08:13:29.860Z,53.42
2018-09-08T08:14:29.895Z,51.31
2018-09-08T08:15:29.907Z,51.33
2018-09-08T08:16:29.925Z,51.81
2018-09-08T08:17:29.961Z,51.91
2018-09-08T08:18:29.992Z,50.56
2018-09-08T08:19:30.014Z,49.69
2018-09-08T08:20:30.038Z,49.69
2018-09-08T08:21:30.819Z,49.89
2018-09-08T08:22:30.163Z,48.74
2018-09-08T08:23:30.132Z,48.64
2018-09-08T08:24:30.164Z,50.08
2018-09-08T08:25:30.171Z,49.41
2018-09-08T08:26:30.201Z,49.41
2018-09-08T08:27:30.217Z,48.74
2018-09-08T08:28:30.321Z,48.45
2018-09-08T08:29:30.284Z,49.15
2018-09-08T08:30:30.394Z,50.01
2018-09-08T08:31:30.329Z,49.89
2018-09-08T08:32:30.359Z,48.47
2018-09-08T08:33:30.416Z,47.89
2018-09-08T08:34:30.438Z,47.89
2018-09-08T08:35:30.450Z,47.31
2018-09-08T08:36:30.518Z,47.72
2018-09-08T08:38:30.530Z,45.99
2018-09-08T08:39:30.591Z,45.44
2018-09-08T08:40:30.792Z,45.15
2018-09-08T08:41:30.601Z,45.15
2018-09-08T08:42:30.634Z,44.62
2018-09-08T08:43:30.658Z,45.39
2018-09-08T08:44:30.687Z,44.25
2018-09-08T08:45:30.710Z,43.41
2018-09-08T08:46:30.750Z,42.35
2018-09-08T08:47:30.801Z,42.75
2018-09-08T08:48:30.794Z,41.67
2018-09-08T08:49:30.820Z,42.46
2018-09-08T08:50:30.844Z,43.89
2018-09-08T08:51:30.871Z,44.25
2018-09-08T08:52:30.971Z,44.25
2018-09-08T08:53:30.938Z,44.11
2018-09-08T08:54:30.972Z,45.25
2018-09-08T08:55:30.990Z,46.01
2018-09-08T08:56:31.012Z,46.21
2018-09-08T08:57:31.043Z,45.92
2018-09-08T08:58:31.083Z,46.57
2018-09-08T08:59:31.105Z,46.38
2018-09-08T09:00:31.125Z,46.47
2018-09-08T09:01:31.157Z,46.77
2018-09-08T09:02:31.183Z,47.72
2018-09-08T09:03:31.226Z,47.75
2018-09-08T09:04:31.232Z,47.36
2018-09-08T09:05:31.261Z,46.95
2018-09-08T09:06:31.294Z,47.44
2018-09-08T09:07:31.318Z,47.34
2018-09-08T09:08:31.856Z,47.53
2018-09-08T09:09:31.371Z,47.44
2018-09-08T09:10:31.392Z,48.79
2018-09-08T09:11:31.429Z,48.88
2018-09-08T09:12:31.742Z,47.92
2018-09-08T09:13:31.595Z,47.27
2018-09-08T09:14:31.499Z,48.52
2018-09-08T09:15:31.915Z,47.85
2018-09-08T09:16:31.559Z,47.75
2018-09-08T09:17:31.602Z,47.82
2018-09-08T09:18:32.099Z,47.92
2018-09-08T09:19:31.673Z,48.81
2018-09-08T09:20:31.684Z,47.94
2018-09-08T09:21:31.695Z,47.94
2018-09-08T09:22:31.737Z,47.56
2018-09-08T09:23:31.753Z,47.36
2018-09-08T09:24:32.236Z,47.77
2018-09-08T09:25:31.863Z,47.49
2018-09-08T09:26:31.834Z,47.39
2018-09-08T09:27:31.874Z,49.02
2018-09-08T09:28:31.907Z,47.19
2018-09-08T09:29:31.927Z,47.49
2018-09-08T09:30:31.952Z,47.58
2018-09-08T09:31:31.975Z,47.97
2018-09-08T09:32:32.014Z,48.95
2018-09-08T09:33:32.031Z,47.60
2018-09-08T09:34:32.069Z,46.55
2018-09-08T09:35:32.084Z,48.01
2018-09-08T09:36:32.149Z,46.76
2018-09-08T09:37:32.169Z,46.66
2018-09-08T09:38:32.176Z,46.08
2018-09-08T09:39:32.200Z,46.78
2018-09-08T09:40:32.225Z,46.49
2018-09-08T09:41:32.255Z,46.61
2018-09-08T09:42:32.292Z,46.11
2018-09-08T09:43:32.447Z,47.48
2018-09-08T09:44:32.340Z,45.53
2018-09-08T09:45:32.462Z,47.45
2018-09-08T09:46:32.402Z,48.71
2018-09-08T09:47:32.437Z,49.00
2018-09-08T09:48:32.469Z,48.90
2018-09-08T09:49:32.495Z,46.88
2018-09-08T09:50:32.508Z,48.54
2018-09-08T09:51:32.548Z,46.23
2018-09-08T09:52:32.602Z,45.65
2018-09-08T09:53:32.618Z,46.13
2018-09-08T09:54:32.614Z,48.35
2018-09-08T09:55:32.647Z,46.64
2018-09-08T09:56:32.718Z,45.76
2018-09-08T09:57:32.714Z,45.18
2018-09-08T09:58:32.818Z,44.80
2018-09-08T09:59:32.824Z,46.25
2018-09-08T10:00:32.804Z,45.86
2018-09-08T10:01:32.821Z,45.76
2018-09-08T10:02:33.727Z,43.45
2018-09-08T10:03:32.880Z,43.93
2018-09-08T10:04:32.900Z,43.93
2018-09-08T10:05:32.950Z,45.57
2018-09-08T10:06:33.007Z,43.85
2018-09-08T10:07:33.008Z,43.78
2018-09-08T10:08:33.086Z,44.36
2018-09-08T10:09:33.058Z,42.43
2018-09-08T10:10:33.076Z,42.24
2018-09-08T10:11:33.111Z,40.92
2018-09-08T10:12:33.139Z,40.58
2018-09-08T10:13:33.160Z,38.27
2018-09-08T10:14:33.187Z,38.40
2018-09-08T10:15:33.240Z,36.40
2018-09-08T10:16:33.282Z,34.28
2018-09-08T10:17:33.302Z,34.74
2018-09-08T10:18:33.305Z,33.80
2018-09-08T10:19:33.383Z,33.25
2018-09-08T10:20:33.361Z,31.92
2018-09-08T10:21:33.409Z,31.37
2018-09-08T10:22:33.428Z,30.63
2018-09-08T10:23:33.551Z,29.50
2018-09-08T10:24:33.483Z,28.54
2018-09-08T10:25:33.533Z,28.43
2018-09-08T10:26:33.552Z,27.51
2018-09-08T10:27:33.568Z,28.45
2018-09-08T10:28:33.607Z,29.57
2018-09-08T10:29:34.043Z,29.71
2018-09-08T10:30:33.676Z,29.79
2018-09-08T10:31:33.692Z,29.88
2018-09-08T10:32:33.713Z,29.42
2018-09-08T10:33:33.750Z,29.24
2018-09-08T10:34:33.794Z,28.45
2018-09-08T10:35:33.805Z,28.26
2018-09-08T10:36:33.852Z,28.93
2018-09-08T10:37:33.867Z,32.16
2018-09-08T10:38:33.897Z,30.60
2018-09-08T10:39:33.928Z,29.99
2018-09-08T10:40:33.965Z,30.93
2018-09-08T10:41:34.008Z,31.14
2018-09-08T10:42:34.022Z,32.75
2018-09-08T10:43:34.064Z,36.02
2018-09-08T10:44:34.082Z,33.51
2018-09-08T10:45:34.187Z,32.65
2018-09-08T10:46:34.152Z,33.01
2018-09-08T10:47:34.170Z,32.35
2018-09-08T10:48:34.202Z,34.43
2018-09-08T10:49:34.234Z,33.26
2018-09-08T10:50:34.266Z,32.59
2018-09-08T10:51:34.307Z,34.05
2018-09-08T10:52:34.331Z,32.50
2018-09-08T10:53:34.358Z,31.77
2018-09-08T10:54:34.385Z,33.06
2018-09-08T10:55:34.411Z,32.49
2018-09-08T10:56:34.516Z,32.00
2018-09-08T10:57:34.474Z,32.96
2018-09-08T10:58:34.503Z,33.04
2018-09-08T10:59:34.538Z,33.33
2018-09-08T11:00:34.584Z,32.86
2018-09-08T11:01:34.630Z,33.34
2018-09-08T11:02:34.830Z,32.65
2018-09-08T11:03:34.660Z,33.53
2018-09-08T11:04:34.695Z,33.64
2018-09-08T11:05:34.728Z,32.45
2018-09-08T11:06:34.761Z,33.44
2018-09-08T11:07:34.798Z,33.04
2018-09-08T11:08:34.825Z,34.61
2018-09-08T11:09:34.858Z,34.88
2018-09-08T11:10:34.890Z,36.24
2018-09-08T11:11:34.914Z,36.73
2018-09-08T11:12:34.954Z,36.13
2018-09-08T11:13:34.981Z,35.92
2018-09-08T11:14:35.010Z,36.40
2018-09-08T11:15:35.042Z,36.48
2018-09-08T11:16:35.080Z,36.50
2018-09-08T11:17:35.107Z,33.69
2018-09-08T11:18:35.137Z,34.48
2018-09-08T11:19:35.167Z,35.63
2018-09-08T11:20:35.194Z,37.05
2018-09-08T11:21:35.232Z,36.95
2018-09-08T11:22:35.264Z,36.85
2018-09-08T11:23:35.294Z,37.24
2018-09-08T11:24:35.338Z,35.03
2018-09-08T11:25:35.361Z,35.59
2018-09-08T11:26:35.398Z,35.69
2018-09-08T11:27:35.423Z,35.78
2018-09-08T11:28:35.477Z,37.53
2018-09-08T11:29:35.491Z,38.31
2018-09-08T11:30:35.613Z,37.82
2018-09-08T11:31:35.557Z,38.02
2018-09-08T11:32:35.589Z,36.87
2018-09-08T11:33:35.625Z,36.21
2018-09-08T11:34:35.657Z,36.69
2018-09-08T11:35:35.714Z,35.82
2018-09-08T11:36:35.726Z,35.80
2018-09-08T11:37:35.750Z,35.69
2018-09-08T11:38:35.789Z,36.08
2018-09-08T11:39:35.826Z,36.25
2018-09-08T11:40:35.850Z,38.27
2018-09-08T11:41:35.902Z,38.56
2018-09-08T11:42:35.914Z,37.69
2018-09-08T11:43:36.895Z,37.71
2018-09-08T11:44:35.981Z,36.18
2018-09-08T11:45:36.010Z,36.85
2018-09-08T11:46:36.056Z,37.05
2018-09-08T11:47:36.082Z,36.29
2018-09-08T11:48:36.116Z,38.40
2018-09-08T11:49:36.247Z,38.50
2018-09-08T11:50:36.171Z,37.92
2018-09-08T11:51:36.202Z,39.11
2018-09-08T11:52:36.305Z,36.19
2018-09-08T11:53:36.267Z,36.58
2018-09-08T11:54:36.322Z,35.30
2018-09-08T11:55:36.381Z,37.24
2018-09-08T11:56:36.366Z,36.06
2018-09-08T11:57:36.401Z,36.04
2018-09-08T11:58:36.430Z,36.91
2018-09-08T11:59:36.522Z,36.80
2018-09-08T12:00:36.504Z,37.09
2018-09-08T12:01:36.527Z,38.06
2018-09-08T12:02:36.579Z,37.17
2018-09-08T12:03:36.615Z,37.38
2018-09-08T12:04:36.618Z,40.86
2018-09-08T12:05:36.652Z,42.49
2018-09-08T12:06:36.680Z,41.42
2018-09-08T12:07:36.711Z,40.53
2018-09-08T12:08:36.750Z,41.60
2018-09-08T12:09:36.777Z,41.41
2018-09-08T12:10:36.810Z,42.83
2018-09-08T12:11:36.847Z,43.51
2018-09-08T12:12:36.863Z,41.19
2018-09-08T12:13:36.894Z,39.95
2018-09-08T12:14:36.928Z,39.37
2018-09-08T12:15:36.967Z,39.86
2018-09-08T12:16:37.007Z,39.37
2018-09-08T12:17:37.020Z,38.68
2018-09-08T12:18:37.049Z,38.39
2018-09-08T12:19:37.079Z,38.39
2018-09-08T12:20:37.105Z,38.68
2018-09-08T12:21:37.146Z,37.71
2018-09-08T12:22:37.173Z,38.08
2018-09-08T12:23:37.201Z,38.58
2018-09-08T12:24:37.233Z,41.48
2018-09-08T12:25:37.265Z,39.16
2018-09-08T12:26:37.423Z,37.71
2018-09-08T12:27:37.320Z,37.70
2018-09-08T12:28:37.357Z,40.32
2018-09-08T12:29:37.377Z,40.59
2018-09-08T12:30:37.504Z,39.53
2018-09-08T12:31:37.445Z,38.66
2018-09-08T12:32:37.507Z,38.37
2018-09-08T12:33:37.506Z,38.37
2018-09-08T12:34:37.533Z,38.66
2018-09-08T12:35:37.556Z,38.46
2018-09-08T12:36:37.589Z,38.76
2018-09-08T12:37:37.620Z,39.34
2018-09-08T12:38:37.717Z,39.04
2018-09-08T12:39:37.690Z,39.43
2018-09-08T12:40:37.710Z,39.92
2018-09-08T12:41:37.749Z,39.53
2018-09-08T12:42:37.842Z,39.62
2018-09-08T12:43:37.799Z,41.17
2018-09-08T12:44:37.819Z,41.66
2018-09-08T12:45:37.878Z,40.69
2018-09-08T12:46:37.891Z,40.50
2018-09-08T12:47:37.923Z,39.92
2018-09-08T12:48:37.943Z,39.53
2018-09-08T12:49:37.968Z,40.01
2018-09-08T12:50:38.002Z,39.82
2018-09-08T12:51:38.029Z,39.92
2018-09-08T12:52:38.161Z,40.01
2018-09-08T12:53:38.095Z,40.40
2018-09-08T12:54:38.126Z,39.99